createdAt,value
2022-10-17T00:00:47.242Z,7.17
2022-10-17T00:03:51.097Z,6.37
2022-10-17T00:06:56.239Z,6.63
2022-10-17T00:09:59.787Z,13.40
2022-10-17T00:13:03.930Z,4.87
2022-10-17T00:16:09.301Z,5.67
2022-10-17T00:19:12.917Z,5.87
2022-10-17T00:22:18.156Z,4.67
2022-10-17T00:25:21.999Z,5.43
2022-10-17T00:28:25.650Z,6.80
2022-10-17T00:31:29.315Z,7.07
2022-10-17T00:34:32.895Z,8.63
2022-10-17T00:37:37.941Z,12.23
2022-10-17T00:40:41.579Z,8.60
2022-10-17T00:43:58.625Z,5.83
2022-10-17T00:47:06.102Z,7.40
2022-10-17T00:50:10.888Z,4.63
2022-10-17T00:53:17.220Z,6.63
2022-10-17T00:56:22.468Z,6.23
2022-10-17T00:59:27.783Z,7.43
2022-10-17T01:02:31.710Z,7.00
2022-10-17T01:05:36.052Z,7.90
2022-10-17T01:08:42.137Z,7.07
2022-10-17T01:11:54.745Z,6.57
2022-10-17T01:15:14.028Z,5.97
2022-10-17T01:18:33.910Z,7.83
2022-10-17T01:21:53.273Z,6.30
2022-10-17T01:25:31.273Z,3.70
2022-10-17T01:29:09.503Z,7.27
2022-10-17T01:32:19.924Z,6.77
2022-10-17T01:35:30.530Z,6.77
2022-10-17T01:38:40.209Z,8.33
2022-10-17T01:41:50.849Z,5.63
2022-10-17T01:45:00.734Z,4.60
2022-10-17T01:48:12.767Z,7.40
2022-10-17T01:51:22.876Z,8.60
2022-10-17T01:54:34.052Z,5.83
2022-10-17T01:57:45.236Z,11.57
2022-10-17T02:00:51.157Z,8.73
2022-10-17T02:03:59.362Z,7.67
2022-10-17T02:07:09.029Z,8.77
2022-10-17T02:10:23.006Z,5.40
2022-10-17T02:13:43.368Z,5.70
2022-10-17T02:17:06.332Z,9.40
2022-10-17T02:20:25.077Z,7.17
2022-10-17T02:23:39.067Z,4.63
2022-10-17T02:26:51.446Z,7.57
2022-10-17T02:30:04.667Z,6.70
2022-10-17T02:33:14.919Z,4.10
2022-10-17T02:36:26.572Z,6.73
2022-10-17T02:39:32.857Z,5.67
2022-10-17T02:42:37.817Z,6.70
2022-10-17T02:45:42.896Z,4.53
2022-10-17T02:48:52.096Z,5.97
2022-10-17T02:52:07.283Z,7.30
2022-10-17T02:55:19.281Z,4.90
2022-10-17T02:58:32.410Z,8.60
2022-10-17T03:01:38.010Z,5.40
2022-10-17T03:04:45.133Z,4.57
2022-10-17T03:07:50.586Z,5.90
2022-10-17T03:10:54.426Z,4.70
2022-10-17T03:13:58.085Z,7.30
2022-10-17T03:17:01.724Z,6.73
2022-10-17T03:20:07.237Z,5.93
2022-10-17T03:23:12.272Z,9.60
2022-10-17T03:26:15.895Z,8.10
2022-10-17T03:29:19.551Z,7.60
2022-10-17T03:32:23.177Z,5.67
2022-10-17T03:35:27.269Z,6.87
2022-10-17T03:38:32.259Z,5.73
2022-10-17T03:41:36.442Z,7.43
2022-10-17T03:44:40.060Z,6.13
2022-10-17T03:47:43.631Z,5.60
2022-10-17T03:50:47.306Z,6.20
2022-10-17T03:53:52.581Z,8.13
2022-10-17T04:00:00.695Z,9.67
2022-10-17T04:03:04.406Z,6.43
2022-10-17T04:06:09.140Z,5.83
2022-10-17T04:09:14.604Z,7.23
2022-10-17T04:12:18.352Z,5.23
2022-10-17T04:15:21.876Z,6.07
2022-10-17T04:18:25.943Z,6.10
2022-10-17T04:21:30.701Z,6.37
2022-10-17T04:24:35.915Z,6.00
2022-10-17T04:27:39.529Z,6.80
2022-10-17T04:30:45.461Z,9.47
2022-10-17T04:33:51.359Z,8.40
2022-10-17T04:36:54.929Z,8.17
2022-10-17T04:39:59.867Z,7.43
2022-10-17T04:43:03.641Z,8.43
2022-10-17T04:46:10.671Z,7.67
2022-10-17T04:49:14.720Z,7.20
2022-10-17T04:52:18.347Z,7.30
2022-10-17T04:55:24.371Z,6.90
2022-10-17T04:58:29.912Z,8.27
2022-10-17T05:01:33.579Z,7.33
2022-10-17T05:04:37.339Z,7.10
2022-10-17T05:07:41.807Z,8.30
2022-10-17T05:10:47.527Z,11.37
2022-10-17T05:13:56.092Z,7.77
2022-10-17T05:16:59.760Z,7.77
2022-10-17T05:20:03.524Z,8.47
2022-10-17T05:23:07.170Z,8.43
2022-10-17T05:26:12.957Z,9.20
2022-10-17T05:29:16.821Z,7.73
2022-10-17T05:32:20.440Z,9.23
2022-10-17T05:35:24.195Z,8.27
2022-10-17T05:38:28.669Z,7.97
2022-10-17T05:41:33.865Z,9.77
2022-10-17T05:44:39.271Z,7.20
2022-10-17T05:47:43.304Z,9.33
2022-10-17T05:50:47.405Z,7.53
2022-10-17T05:53:51.030Z,7.37
2022-10-17T05:56:57.587Z,9.33
2022-10-17T06:00:01.567Z,8.90
2022-10-17T06:03:05.301Z,9.67
2022-10-17T06:06:12.556Z,11.03
2022-10-17T06:09:16.301Z,8.47
2022-10-17T06:12:21.271Z,7.63
2022-10-17T06:15:24.987Z,9.43
2022-10-17T06:18:28.599Z,8.63
2022-10-17T06:21:34.828Z,8.13
2022-10-17T06:24:38.548Z,10.53
2022-10-17T06:27:43.748Z,8.30
2022-10-17T06:30:47.417Z,6.80
2022-10-17T06:33:51.224Z,8.17
2022-10-17T06:40:03.931Z,10.23
2022-10-17T06:43:09.000Z,7.73
2022-10-17T06:46:12.610Z,11.30
2022-10-17T06:49:16.140Z,10.63
2022-10-17T06:52:20.056Z,10.33
2022-10-17T06:55:23.939Z,7.47
2022-10-17T06:58:29.363Z,8.10
2022-10-17T07:01:34.322Z,6.80
2022-10-17T07:04:37.900Z,7.83
2022-10-17T07:07:44.184Z,7.77
2022-10-17T07:10:49.836Z,9.33
2022-10-17T07:13:54.812Z,6.93
2022-10-17T07:16:58.812Z,7.50
2022-10-17T07:20:02.378Z,8.73
2022-10-17T07:23:07.736Z,6.93
2022-10-17T07:26:14.778Z,10.97
2022-10-17T07:29:20.025Z,6.13
2022-10-17T07:32:23.799Z,6.73
2022-10-17T07:35:27.441Z,9.53
2022-10-17T07:38:31.831Z,5.93
2022-10-17T07:41:35.460Z,4.97
2022-10-17T07:44:40.404Z,6.20
2022-10-17T07:47:44.216Z,5.03
2022-10-17T07:50:48.087Z,4.90
2022-10-17T07:53:51.625Z,7.80
2022-10-17T07:56:55.172Z,5.60
2022-10-17T08:00:00.177Z,6.23
2022-10-17T08:03:04.092Z,6.27
2022-10-17T08:06:07.700Z,8.37
2022-10-17T08:09:11.313Z,6.67
2022-10-17T08:12:16.322Z,5.10
2022-10-17T08:15:32.133Z,6.27
2022-10-17T08:18:35.906Z,5.50
2022-10-17T08:21:41.410Z,4.70
2022-10-17T08:24:46.279Z,4.80
2022-10-17T08:27:50.033Z,6.13
2022-10-17T08:30:54.996Z,5.20
2022-10-17T08:33:58.555Z,7.33
2022-10-17T08:37:02.236Z,7.23
2022-10-17T08:40:07.510Z,5.03
2022-10-17T08:43:43.673Z,5.20
2022-10-17T08:46:54.243Z,4.83
2022-10-17T08:50:03.189Z,6.13
2022-10-17T08:53:18.251Z,7.40
2022-10-17T08:56:44.451Z,5.77
2022-10-17T08:59:55.050Z,4.93
2022-10-17T09:03:21.727Z,4.60
2022-10-17T09:06:30.879Z,5.20
2022-10-17T09:09:45.697Z,6.17
2022-10-17T09:13:06.866Z,4.80
2022-10-17T09:16:31.160Z,8.20
2022-10-17T09:19:42.696Z,4.87
2022-10-17T09:26:05.224Z,5.80
2022-10-17T09:29:25.714Z,7.47
2022-10-17T09:32:30.965Z,4.43
2022-10-17T09:35:36.733Z,5.57
2022-10-17T09:38:45.815Z,6.73
2022-10-17T09:41:54.622Z,6.20
2022-10-17T09:45:19.339Z,6.53
2022-10-17T09:48:33.131Z,5.13
2022-10-17T09:51:40.492Z,4.13
2022-10-17T09:54:48.134Z,6.97
2022-10-17T09:57:58.425Z,5.77
2022-10-17T10:01:23.697Z,5.90
2022-10-17T10:04:30.413Z,5.03
2022-10-17T10:07:40.620Z,5.87
2022-10-17T10:10:46.111Z,5.70
2022-10-17T10:13:51.725Z,4.87
2022-10-17T10:16:56.292Z,4.10
2022-10-17T10:20:00.464Z,7.33
2022-10-17T10:23:16.061Z,5.10
2022-10-17T10:26:25.443Z,5.37
2022-10-17T10:29:34.228Z,7.03
2022-10-17T10:32:39.326Z,7.67
2022-10-17T10:35:42.994Z,8.60
2022-10-17T10:39:01.207Z,4.40
2022-10-17T10:42:23.260Z,8.87
2022-10-17T10:45:59.479Z,6.03
2022-10-17T10:48:58.523Z,6.37
2022-10-17T10:52:06.831Z,4.80
2022-10-17T10:55:27.073Z,6.87
2022-10-17T10:58:43.003Z,8.23
2022-10-17T11:01:56.816Z,6.63
2022-10-17T11:05:07.686Z,4.13
2022-10-17T11:08:24.610Z,3.57
2022-10-17T11:11:39.135Z,10.43
2022-10-17T11:14:54.020Z,5.83
2022-10-17T11:18:04.112Z,5.60
2022-10-17T11:21:17.163Z,8.33
2022-10-17T11:24:29.179Z,6.40
2022-10-17T11:27:36.347Z,8.33
2022-10-17T11:30:49.338Z,7.80
2022-10-17T11:34:00.840Z,6.47
2022-10-17T11:37:14.440Z,9.47
2022-10-17T11:40:26.743Z,6.73
2022-10-17T11:43:39.305Z,10.57
2022-10-17T11:46:47.192Z,13.03
2022-10-17T11:49:57.092Z,9.87
2022-10-17T11:53:06.317Z,9.13
2022-10-17T11:56:15.345Z,9.57
2022-10-17T12:00:04.127Z,11.57
2022-10-17T12:03:33.489Z,9.30
2022-10-17T12:07:01.352Z,10.87
2022-10-17T12:10:26.082Z,8.70
2022-10-17T12:13:54.668Z,8.97
2022-10-17T12:16:59.966Z,11.47
2022-10-17T12:20:31.827Z,12.70
2022-10-17T12:23:36.559Z,14.07
2022-10-17T12:26:40.279Z,12.87
2022-10-17T12:29:43.852Z,15.80
2022-10-17T12:33:21.933Z,14.57
2022-10-17T12:36:49.877Z,17.50
2022-10-17T12:39:53.448Z,14.10
2022-10-17T12:42:56.947Z,14.67
2022-10-17T12:46:02.173Z,14.60
2022-10-17T12:49:42.108Z,14.33
2022-10-17T12:53:07.600Z,15.47
2022-10-17T12:56:11.461Z,14.20
2022-10-17T12:59:21.739Z,13.53
2022-10-17T13:02:30.835Z,14.70
2022-10-17T13:05:39.644Z,16.17
2022-10-17T13:08:54.505Z,12.97
2022-10-17T13:12:04.035Z,18.07
2022-10-17T13:15:09.907Z,17.33
2022-10-17T13:18:22.195Z,16.93
2022-10-17T13:21:28.835Z,15.37
2022-10-17T13:24:36.100Z,13.93
2022-10-17T13:27:39.886Z,17.23
2022-10-17T13:30:49.749Z,18.13
2022-10-17T13:33:59.209Z,15.13
2022-10-17T13:37:08.143Z,18.33
2022-10-17T13:40:37.789Z,16.33
2022-10-17T13:43:43.155Z,16.43
2022-10-17T13:46:47.693Z,16.67
2022-10-17T13:49:55.192Z,18.03
2022-10-17T13:53:32.439Z,21.63
2022-10-17T13:56:37.033Z,19.43
2022-10-17T13:59:44.255Z,22.77
2022-10-17T14:02:48.427Z,20.20
2022-10-17T14:06:15.828Z,17.63
2022-10-17T14:09:25.895Z,16.37
2022-10-17T14:12:29.648Z,20.13
2022-10-17T14:15:47.784Z,20.80
2022-10-17T14:18:54.265Z,20.27
2022-10-17T14:22:18.533Z,23.87
2022-10-17T14:25:33.183Z,19.13
2022-10-17T14:28:37.323Z,22.43
2022-10-17T14:31:40.980Z,21.67
2022-10-17T14:34:45.182Z,23.87
2022-10-17T14:37:53.178Z,17.90
2022-10-17T14:41:40.773Z,21.77
2022-10-17T14:44:31.821Z,17.90
2022-10-17T14:47:43.713Z,19.70
2022-10-17T14:51:10.941Z,18.27
2022-10-17T14:54:30.291Z,22.07
2022-10-17T14:57:46.243Z,17.83
2022-10-17T15:00:50.917Z,19.90
2022-10-17T15:03:54.463Z,16.93
2022-10-17T15:06:58.084Z,15.90
2022-10-17T15:10:01.776Z,15.73
2022-10-17T15:16:35.771Z,17.07
2022-10-17T15:19:49.674Z,15.57
2022-10-17T15:22:53.747Z,18.37
2022-10-17T15:25:57.352Z,18.77
2022-10-17T15:29:02.714Z,19.80
2022-10-17T15:32:07.006Z,17.97
2022-10-17T15:35:10.959Z,15.43
2022-10-17T15:38:19.462Z,15.43
2022-10-17T15:41:25.822Z,19.00
2022-10-17T15:44:31.387Z,14.20
2022-10-17T15:47:35.367Z,15.87
2022-10-17T15:50:38.915Z,13.63
2022-10-17T15:53:42.584Z,13.13
2022-10-17T15:56:54.186Z,17.03
2022-10-17T16:00:01.187Z,18.03
2022-10-17T16:03:05.187Z,11.53
2022-10-17T16:06:12.111Z,14.90
2022-10-17T16:09:17.856Z,14.80
2022-10-17T16:12:31.215Z,13.50
2022-10-17T16:15:36.149Z,15.50
2022-10-17T16:18:39.730Z,16.53
2022-10-17T16:21:43.405Z,15.10
2022-10-17T16:24:47.152Z,17.17
2022-10-17T16:27:52.846Z,16.27
2022-10-17T16:30:57.855Z,17.07
2022-10-17T16:34:03.812Z,16.83
2022-10-17T16:37:07.351Z,16.27
2022-10-17T16:40:13.005Z,14.70
2022-10-17T16:43:16.578Z,18.77
2022-10-17T16:46:22.535Z,17.43
2022-10-17T16:49:26.175Z,17.60
2022-10-17T16:52:30.427Z,18.77
2022-10-17T16:55:34.171Z,16.13
2022-10-17T16:58:37.854Z,18.30
2022-10-17T17:01:42.874Z,21.77
2022-10-17T17:04:46.622Z,19.20
2022-10-17T17:07:50.304Z,20.73
2022-10-17T17:10:55.532Z,21.10
2022-10-17T17:14:01.722Z,21.57
2022-10-17T17:17:15.364Z,21.73
2022-10-17T17:20:28.153Z,20.43
2022-10-17T17:23:33.945Z,20.87
2022-10-17T17:26:37.793Z,19.97
2022-10-17T17:29:41.460Z,21.83
2022-10-17T17:32:46.508Z,19.33
2022-10-17T17:35:55.815Z,20.37
2022-10-17T17:39:02.264Z,21.33
2022-10-17T17:42:05.829Z,23.47
2022-10-17T17:45:11.131Z,23.27
2022-10-17T17:48:16.477Z,17.13
2022-10-17T17:51:26.922Z,14.37
2022-10-17T17:54:37.185Z,13.27
2022-10-17T17:57:43.950Z,9.70
2022-10-17T18:00:47.675Z,10.37
2022-10-17T18:03:55.522Z,9.63
2022-10-17T18:06:59.198Z,8.37
2022-10-17T18:10:02.843Z,8.93
2022-10-17T18:13:06.553Z,8.00
2022-10-17T18:16:13.715Z,5.80
2022-10-17T18:19:18.923Z,5.50
2022-10-17T18:22:23.003Z,5.33
2022-10-17T18:25:26.969Z,4.00
2022-10-17T18:28:31.343Z,4.77
2022-10-17T18:31:36.509Z,5.80
2022-10-17T18:34:41.727Z,6.20
2022-10-17T18:37:45.592Z,4.00
2022-10-17T18:40:50.797Z,4.03
2022-10-17T18:43:56.622Z,3.77
2022-10-17T18:47:03.835Z,6.97
2022-10-17T18:50:10.058Z,5.50
2022-10-17T18:53:13.733Z,4.73
2022-10-17T18:56:18.697Z,6.83
2022-10-17T18:59:23.676Z,5.47
2022-10-17T19:02:27.915Z,4.80
2022-10-17T19:05:34.015Z,5.17
2022-10-17T19:08:39.032Z,4.87
2022-10-17T19:11:43.288Z,5.10
2022-10-17T19:14:47.144Z,5.27
2022-10-17T19:17:50.911Z,5.10
2022-10-17T19:20:56.226Z,6.63
2022-10-17T19:24:03.154Z,8.63
2022-10-17T19:27:08.665Z,5.90
2022-10-17T19:30:13.993Z,10.37
2022-10-17T19:33:17.562Z,8.43
2022-10-17T19:36:28.933Z,8.83
2022-10-17T19:39:35.952Z,5.87
2022-10-17T19:42:39.846Z,6.67
2022-10-17T19:45:45.676Z,10.07
2022-10-17T19:48:51.298Z,7.10
2022-10-17T19:51:56.287Z,7.13
2022-10-17T19:54:59.784Z,7.27
2022-10-17T19:58:03.328Z,6.63
2022-10-17T20:01:07.476Z,10.20
2022-10-17T20:04:13.082Z,8.30
2022-10-17T20:07:18.007Z,8.60
2022-10-17T20:10:22.463Z,9.47
2022-10-17T20:13:25.938Z,9.10
2022-10-17T20:16:32.280Z,8.17
2022-10-17T20:19:35.926Z,9.10
2022-10-17T20:22:40.964Z,7.77
2022-10-17T20:25:45.080Z,5.37
2022-10-17T20:28:49.870Z,8.57
2022-10-17T20:31:53.500Z,5.63
2022-10-17T20:34:57.073Z,7.33
2022-10-17T20:38:01.971Z,9.17
2022-10-17T20:41:08.346Z,7.17
2022-10-17T20:44:12.785Z,6.50
2022-10-17T20:47:32.388Z,9.20
2022-10-17T20:50:39.892Z,6.43
2022-10-17T20:53:44.883Z,6.53
2022-10-17T20:56:48.398Z,7.97
2022-10-17T20:59:51.951Z,7.87
2022-10-17T21:06:04.056Z,6.77
2022-10-17T21:09:09.880Z,9.20
2022-10-17T21:12:18.180Z,8.93
2022-10-17T21:15:29.844Z,7.67
2022-10-17T21:18:33.521Z,7.07
2022-10-17T21:21:40.873Z,8.33
2022-10-17T21:24:45.807Z,13.80
2022-10-17T21:27:49.396Z,10.00
2022-10-17T21:30:52.895Z,14.23
2022-10-17T21:34:00.147Z,15.53
2022-10-17T21:37:04.307Z,14.37
2022-10-17T21:40:11.191Z,15.40
2022-10-17T21:43:15.863Z,17.83
2022-10-17T21:46:21.542Z,22.67
2022-10-17T21:49:26.970Z,28.97
2022-10-17T21:52:30.823Z,33.50
2022-10-17T21:55:38.096Z,34.17
2022-10-17T21:58:42.149Z,34.93
2022-10-17T22:01:47.609Z,37.57
2022-10-17T22:04:51.185Z,35.47
2022-10-17T22:07:54.799Z,33.40
2022-10-17T22:11:05.522Z,26.60
2022-10-17T22:14:14.127Z,30.40
2022-10-17T22:17:17.728Z,30.10
2022-10-17T22:20:21.307Z,25.97
2022-10-17T22:23:26.011Z,25.53
2022-10-17T22:26:33.227Z,25.57
2022-10-17T22:29:36.870Z,27.00
2022-10-17T22:32:40.391Z,28.93
2022-10-17T22:35:44.939Z,27.47
2022-10-17T22:38:49.286Z,25.67
2022-10-17T22:41:54.236Z,29.40
2022-10-17T22:44:57.987Z,31.47
2022-10-17T22:48:01.561Z,28.83
2022-10-17T22:51:05.231Z,28.47
2022-10-17T22:54:08.819Z,32.33
2022-10-17T22:57:13.950Z,32.20
2022-10-17T23:00:18.436Z,31.57
2022-10-17T23:03:24.093Z,34.40
2022-10-17T23:06:27.908Z,35.30
2022-10-17T23:09:31.516Z,33.00
2022-10-17T23:12:36.479Z,38.50
2022-10-17T23:15:40.651Z,40.97
2022-10-17T23:18:44.775Z,37.10
2022-10-17T23:21:48.335Z,39.77
2022-10-17T23:24:51.948Z,40.40
2022-10-17T23:27:57.347Z,39.13
2022-10-17T23:31:09.967Z,37.93
2022-10-17T23:34:13.728Z,42.23
2022-10-17T23:37:17.363Z,47.10
2022-10-17T23:40:21.042Z,46.77
2022-10-17T23:43:26.661Z,39.40
2022-10-17T23:46:30.507Z,44.37
2022-10-17T23:49:34.239Z,42.93
2022-10-17T23:52:37.790Z,47.60
2022-10-17T23:55:41.288Z,42.67
2022-10-17T23:58:46.308Z,42.03
